Terminal Aerodrome Forecast
Issued by NWS

Home | Current Version | Previous Version | Text Only | Print | Product List | Glossary Off
Versions: 1 2 3 4 5 6 7 8 9 10 11 12 13 14 15

000
FTUS43 KICT 230359 AAA
TAFHUT
TAF AMD
KHUT 230359Z 2304/2324 VRB03KT 3SM BR SCT002 BKN070
      TEMPO 2304/2306 1/2SM FG BKN002
     FM230600 29004KT P6SM VCSH BKN100
     FM230900 35013KT P6SM OVC060
     FM231400 35014G22KT P6SM SCT040
     FM231800 34014KT P6SM VCSH BKN060=

USA.gov is the U.S. government's official web portal to all federal, state and local government web resources and services.